KMLJ

Baldwin County Airport

Milledgeville, Georgia, USA
METAR KMLJ 241955Z AUTO 20008G17KT 150V230 10SM SCT060 SCT070 28/14 A3009 RMK AO2
Observed Flight Rules
Feb-24 @ 19:55 UTC (16 minutes ago) Visual Flight Rules
Wind Visibility Clouds
200° at 8 knots
 Gusting to 17 knots
10 miles
  • Scattered at 6,000' AGL
  • Scattered at 7,000' AGL
Temperatures Readings
Current 28°C / 82°F
Dewpoint 14°C / 57°F
Humidity 42%
Altimeter 30.09" Hg
Pressure 1019 hPa
Elevation 117
METAR KMLJ 241955Z AUTO 20008G17KT 150V230 10SM SCT060 SCT070 28/14 A3009 RMK AO2
Observed Flight Rules
Feb-24 @ 19:55 UTC
(16 minutes ago)
VFR
Wind Visibility
200° at 8 knots
 Gusting to 17 knots
10 miles
Clouds
  • Scattered at 6,000' AGL
  • Scattered at 7,000' AGL
Temperature Dewpoint
28°C / 82°F 14°C / 57°F
Humidity Altimeter Pressure
42% 30.09" Hg 1019 hPa